createdAt,value
2017-10-04T00:01:05.700Z,99.9
2017-10-04T00:02:13.565Z,99.9
2017-10-04T00:03:21.024Z,99.9
2017-10-04T00:04:28.496Z,99.9
2017-10-04T00:05:35.967Z,99.9
2017-10-04T00:06:43.432Z,99.9
2017-10-04T00:07:51.485Z,99.9
2017-10-04T00:08:58.958Z,99.9
2017-10-04T00:10:06.431Z,99.9
2017-10-04T00:11:13.897Z,99.9
2017-10-04T00:12:21.367Z,99.9
2017-10-04T00:13:29.184Z,99.9
2017-10-04T00:14:36.659Z,99.9
2017-10-04T00:15:43.819Z,99.9
2017-10-04T00:16:50.626Z,99.9
2017-10-04T00:17:58.096Z,99.9
2017-10-04T00:19:05.933Z,99.9
2017-10-04T00:20:13.408Z,99.9
2017-10-04T00:21:20.879Z,99.9
2017-10-04T00:22:28.589Z,99.9
2017-10-04T00:23:36.058Z,99.9
2017-10-04T00:24:43.879Z,99.9
2017-10-04T00:25:51.348Z,99.9
2017-10-04T00:26:58.817Z,99.9
2017-10-04T00:28:05.951Z,99.9
2017-10-04T00:29:13.089Z,99.9
2017-10-04T00:30:20.571Z,99.9
2017-10-04T00:31:28.043Z,99.9
2017-10-04T00:32:35.514Z,99.9
2017-10-04T00:33:42.987Z,99.9
2017-10-04T00:34:50.453Z,99.9
2017-10-04T00:35:57.947Z,99.9
2017-10-04T00:37:05.419Z,99.9
2017-10-04T00:38:12.891Z,99.9
2017-10-04T00:39:20.624Z,99.9
2017-10-04T00:40:28.096Z,99.9
2017-10-04T00:41:35.567Z,99.9
2017-10-04T00:42:43.037Z,99.9
2017-10-04T00:43:50.511Z,99.9
2017-10-04T00:44:57.992Z,99.9
2017-10-04T00:46:05.480Z,99.9
2017-10-04T00:47:13.302Z,99.9
2017-10-04T00:48:20.431Z,99.9
2017-10-04T00:49:27.898Z,99.9
2017-10-04T00:50:35.375Z,99.9
2017-10-04T00:51:42.844Z,99.9
2017-10-04T00:52:50.663Z,99.9
2017-10-04T00:53:58.131Z,99.9
2017-10-04T00:55:05.600Z,99.9
2017-10-04T00:56:13.074Z,99.9
2017-10-04T00:57:20.546Z,99.9
2017-10-04T00:58:28.014Z,99.9
2017-10-04T00:59:35.499Z,99.9
2017-10-04T01:00:42.969Z,99.9
2017-10-04T01:01:50.435Z,99.9
2017-10-04T01:02:57.907Z,99.9
2017-10-04T01:04:05.394Z,99.9
2017-10-04T01:05:12.527Z,99.9
2017-10-04T01:06:19.998Z,99.9
2017-10-04T01:07:27.140Z,99.9
2017-10-04T01:08:34.277Z,99.9
2017-10-04T01:09:41.748Z,99.9
2017-10-04T01:10:49.218Z,99.9
2017-10-04T01:11:56.687Z,99.9
2017-10-04T01:13:04.154Z,99.9
2017-10-04T01:14:11.623Z,99.9
2017-10-04T01:15:19.087Z,99.9
2017-10-04T01:16:26.559Z,99.9
2017-10-04T01:17:34.024Z,99.9
2017-10-04T01:18:41.514Z,99.9
2017-10-04T01:19:48.983Z,99.9
2017-10-04T01:20:56.122Z,99.9
2017-10-04T01:22:03.590Z,99.9
2017-10-04T01:23:10.727Z,99.9
2017-10-04T01:24:18.203Z,99.9
2017-10-04T01:25:25.672Z,99.9
2017-10-04T01:26:33.140Z,99.9
2017-10-04T01:27:40.605Z,99.9
2017-10-04T01:28:48.078Z,99.9
2017-10-04T01:29:54.887Z,99.9
2017-10-04T01:31:02.355Z,99.9
2017-10-04T01:32:09.825Z,99.9
2017-10-04T01:33:16.962Z,99.9
2017-10-04T01:34:24.098Z,99.9
2017-10-04T01:35:32.839Z,99.9
2017-10-04T01:36:40.461Z,99.9
2017-10-04T01:37:47.954Z,99.9
2017-10-04T01:38:55.434Z,99.9
2017-10-04T01:40:02.896Z,99.9
2017-10-04T01:41:10.365Z,99.9
2017-10-04T01:42:17.835Z,99.9
2017-10-04T01:43:24.967Z,99.9
2017-10-04T01:44:32.439Z,99.9
2017-10-04T01:45:39.909Z,99.9
2017-10-04T01:46:47.378Z,99.9
2017-10-04T01:47:54.532Z,99.9
2017-10-04T01:49:02.003Z,99.9
2017-10-04T01:50:09.148Z,99.9
2017-10-04T01:51:16.619Z,99.9
2017-10-04T01:52:24.092Z,99.9
2017-10-04T01:53:31.226Z,99.9
2017-10-04T01:54:38.697Z,99.9
2017-10-04T01:55:46.170Z,99.9
2017-10-04T01:56:53.309Z,99.9
2017-10-04T01:58:00.780Z,99.9
2017-10-04T01:59:07.914Z,99.9
2017-10-04T02:00:15.384Z,99.9
2017-10-04T02:01:22.851Z,99.9
2017-10-04T02:02:29.990Z,99.9
2017-10-04T02:03:37.133Z,99.9
2017-10-04T02:04:44.608Z,99.9
2017-10-04T02:05:52.072Z,99.9
2017-10-04T02:06:59.206Z,99.9
2017-10-04T02:08:07.637Z,99.9
2017-10-04T02:09:15.120Z,99.9
2017-10-04T02:10:22.595Z,99.9
2017-10-04T02:11:30.088Z,99.9
2017-10-04T02:12:37.556Z,99.9
2017-10-04T02:13:44.702Z,99.9
2017-10-04T02:14:52.167Z,99.9
2017-10-04T02:15:59.635Z,99.9
2017-10-04T02:17:07.105Z,99.9
2017-10-04T02:18:14.572Z,99.9
2017-10-04T02:19:22.044Z,99.9
2017-10-04T02:20:29.511Z,99.9
2017-10-04T02:21:37.337Z,99.9
2017-10-04T02:22:44.805Z,99.9
2017-10-04T02:23:52.307Z,99.9
2017-10-04T02:24:59.445Z,99.9
2017-10-04T02:26:07.146Z,99.9
2017-10-04T02:27:16.549Z,99.9
2017-10-04T02:28:24.036Z,99.9
2017-10-04T02:29:31.503Z,99.9
2017-10-04T02:30:38.977Z,99.9
2017-10-04T02:31:46.440Z,99.9
2017-10-04T02:32:53.929Z,99.9
2017-10-04T02:34:01.397Z,99.9
2017-10-04T02:35:08.868Z,99.9
2017-10-04T02:36:16.340Z,99.9
2017-10-04T02:37:23.809Z,99.9
2017-10-04T02:38:31.282Z,99.9
2017-10-04T02:39:38.751Z,99.9
2017-10-04T02:40:46.223Z,99.9
2017-10-04T02:41:53.694Z,99.9
2017-10-04T02:43:01.184Z,99.9
2017-10-04T02:44:08.661Z,99.9
2017-10-04T02:45:16.130Z,99.9
2017-10-04T02:46:23.752Z,99.9
2017-10-04T02:47:31.220Z,99.9
2017-10-04T02:48:38.352Z,99.9
2017-10-04T02:49:45.820Z,99.9
2017-10-04T02:50:53.297Z,99.9
2017-10-04T02:52:00.764Z,99.9
2017-10-04T02:53:08.240Z,99.9
2017-10-04T02:54:15.715Z,99.9
2017-10-04T02:55:23.176Z,99.9
2017-10-04T02:56:29.648Z,99.9
2017-10-04T02:57:37.116Z,99.9
2017-10-04T02:58:44.590Z,99.9
2017-10-04T02:59:51.744Z,99.9
2017-10-04T03:00:59.202Z,99.9
2017-10-04T03:02:06.677Z,99.9
2017-10-04T03:03:14.141Z,99.9
2017-10-04T03:04:21.849Z,99.9
2017-10-04T03:05:29.316Z,99.9
2017-10-04T03:06:36.785Z,99.9
2017-10-04T03:07:43.925Z,99.9
2017-10-04T03:08:51.392Z,99.9
2017-10-04T03:09:58.864Z,99.9
2017-10-04T03:11:06.350Z,99.9
2017-10-04T03:12:13.822Z,99.9
2017-10-04T03:13:21.287Z,99.9
2017-10-04T03:14:28.422Z,99.9
2017-10-04T03:15:35.557Z,99.9
2017-10-04T03:16:43.038Z,99.9
2017-10-04T03:17:50.507Z,99.9
2017-10-04T03:18:57.991Z,99.9
2017-10-04T03:20:05.460Z,99.9
2017-10-04T03:21:12.928Z,99.9
2017-10-04T03:22:20.397Z,99.9
2017-10-04T03:23:27.865Z,99.9
2017-10-04T03:24:35.357Z,99.9
2017-10-04T03:25:42.827Z,99.9
2017-10-04T03:26:50.300Z,99.9
2017-10-04T03:27:57.434Z,99.9
2017-10-04T03:29:04.903Z,99.9
2017-10-04T03:30:12.045Z,99.9
2017-10-04T03:31:19.517Z,99.9
2017-10-04T03:32:27.200Z,99.9
2017-10-04T03:33:34.666Z,99.9
2017-10-04T03:34:42.138Z,99.9
2017-10-04T03:35:49.604Z,99.9
2017-10-04T03:36:57.071Z,99.9
2017-10-04T03:38:04.206Z,99.9
2017-10-04T03:39:11.678Z,99.9
2017-10-04T03:40:18.824Z,99.9
2017-10-04T03:41:26.291Z,99.9
2017-10-04T03:42:33.753Z,99.9
2017-10-04T03:43:41.322Z,99.9
2017-10-04T03:44:48.786Z,99.9
2017-10-04T03:45:56.257Z,99.9
2017-10-04T03:47:03.730Z,99.9
2017-10-04T03:48:11.219Z,99.9
2017-10-04T03:49:18.682Z,99.9
2017-10-04T03:50:26.044Z,99.9
2017-10-04T03:51:33.518Z,99.9
2017-10-04T03:52:40.988Z,99.9
2017-10-04T03:53:48.457Z,99.9
2017-10-04T03:54:55.942Z,99.9
2017-10-04T03:56:03.430Z,99.9
2017-10-04T03:57:10.895Z,99.9
2017-10-04T03:58:18.369Z,99.9
2017-10-04T03:59:25.835Z,99.9
2017-10-04T04:00:33.553Z,99.9
2017-10-04T04:01:41.022Z,99.9
2017-10-04T04:02:48.527Z,99.9
2017-10-04T04:03:55.996Z,99.9
2017-10-04T04:05:03.478Z,99.9
2017-10-04T04:06:11.299Z,99.9
2017-10-04T04:07:18.096Z,99.9
2017-10-04T04:08:25.226Z,99.9
2017-10-04T04:09:32.723Z,99.9
2017-10-04T04:10:40.193Z,99.9
2017-10-04T04:11:48.225Z,99.9
2017-10-04T04:12:55.689Z,99.9
2017-10-04T04:14:03.189Z,99.9
2017-10-04T04:15:10.659Z,99.9
2017-10-04T04:16:18.134Z,99.9
2017-10-04T04:17:25.962Z,99.9
2017-10-04T04:18:33.425Z,99.9
2017-10-04T04:19:40.897Z,99.9
2017-10-04T04:20:48.364Z,99.9
2017-10-04T04:21:55.843Z,99.9
2017-10-04T04:23:03.663Z,99.9
2017-10-04T04:24:10.793Z,99.9
2017-10-04T04:25:17.599Z,99.9
2017-10-04T04:26:25.086Z,99.9
2017-10-04T04:27:32.552Z,99.9
2017-10-04T04:28:40.020Z,99.9
2017-10-04T04:29:47.157Z,99.9
2017-10-04T04:30:53.955Z,99.9
2017-10-04T04:32:01.423Z,99.9
2017-10-04T04:33:08.892Z,99.9
2017-10-04T04:34:16.710Z,99.9
2017-10-04T04:35:24.175Z,99.9
2017-10-04T04:36:31.644Z,99.9
2017-10-04T04:37:39.112Z,99.9
2017-10-04T04:38:46.578Z,99.9
2017-10-04T04:39:54.048Z,99.9
2017-10-04T04:41:01.519Z,99.9
2017-10-04T04:42:08.326Z,99.9
2017-10-04T04:43:15.800Z,99.9
2017-10-04T04:44:22.937Z,99.9
2017-10-04T04:45:30.425Z,99.9
2017-10-04T04:46:37.891Z,99.9
2017-10-04T04:47:45.374Z,99.9
2017-10-04T04:48:52.509Z,99.9
2017-10-04T04:49:59.995Z,99.9
2017-10-04T04:51:07.467Z,99.9
2017-10-04T04:52:14.932Z,99.9
2017-10-04T04:53:22.408Z,99.9
2017-10-04T04:54:29.875Z,99.9
2017-10-04T04:55:37.345Z,99.9
2017-10-04T04:56:44.818Z,99.9
2017-10-04T04:57:52.290Z,99.9
2017-10-04T04:58:59.758Z,99.9
2017-10-04T05:00:07.227Z,99.9
2017-10-04T05:01:14.691Z,99.9
2017-10-04T05:02:21.823Z,99.9
2017-10-04T05:03:28.950Z,99.9
2017-10-04T05:04:36.425Z,99.9
2017-10-04T05:05:43.886Z,99.9
2017-10-04T05:06:51.372Z,99.9
2017-10-04T05:07:58.840Z,99.9
2017-10-04T05:09:06.574Z,99.9
2017-10-04T05:10:14.050Z,99.9
2017-10-04T05:11:21.515Z,99.9
2017-10-04T05:12:28.655Z,99.9
2017-10-04T05:13:36.127Z,99.9
2017-10-04T05:14:43.597Z,99.9
2017-10-04T05:15:51.065Z,99.9
2017-10-04T05:16:58.535Z,99.9
2017-10-04T05:18:06.000Z,99.9
2017-10-04T05:19:13.465Z,99.9
2017-10-04T05:20:20.951Z,99.9
2017-10-04T05:21:28.434Z,99.9
2017-10-04T05:22:35.901Z,99.9
2017-10-04T05:23:43.040Z,99.9
2017-10-04T05:24:50.507Z,99.9
2017-10-04T05:25:57.991Z,99.9
2017-10-04T05:27:05.462Z,99.9
2017-10-04T05:28:12.929Z,99.9
2017-10-04T05:29:20.401Z,99.9
2017-10-04T05:30:27.793Z,99.9
2017-10-04T05:31:35.267Z,99.9
2017-10-04T05:32:42.071Z,99.9
2017-10-04T05:33:49.545Z,99.9
2017-10-04T05:34:57.014Z,99.9
2017-10-04T05:36:04.180Z,99.9
2017-10-04T05:37:11.317Z,99.9
2017-10-04T05:38:18.793Z,99.9
2017-10-04T05:39:25.934Z,99.9
2017-10-04T05:40:33.405Z,99.9
2017-10-04T05:41:40.883Z,99.9
2017-10-04T05:42:48.066Z,99.9
2017-10-04T05:43:55.536Z,99.9
2017-10-04T05:45:03.026Z,99.9
2017-10-04T05:46:10.491Z,99.9
2017-10-04T05:47:18.041Z,99.9
2017-10-04T05:48:25.178Z,99.9
2017-10-04T05:49:32.646Z,99.9
2017-10-04T05:50:40.110Z,99.9
2017-10-04T05:51:47.581Z,99.9
2017-10-04T05:52:55.068Z,99.9
2017-10-04T05:54:02.530Z,99.9
2017-10-04T05:56:31.727Z,99.9
2017-10-04T05:57:39.196Z,99.9
2017-10-04T05:58:46.765Z,99.9
2017-10-04T05:59:54.233Z,99.9
2017-10-04T06:01:01.703Z,99.9
2017-10-04T06:02:09.175Z,99.9
2017-10-04T06:03:16.645Z,99.9
2017-10-04T06:04:24.156Z,99.9
2017-10-04T06:05:31.298Z,99.9
2017-10-04T06:06:38.760Z,99.9
2017-10-04T06:07:46.227Z,99.9
2017-10-04T06:08:53.365Z,99.9
2017-10-04T06:10:00.934Z,99.9
2017-10-04T06:11:08.413Z,99.9
2017-10-04T06:12:15.877Z,99.9
2017-10-04T06:13:23.346Z,99.9
2017-10-04T06:14:30.814Z,99.9
2017-10-04T06:15:38.294Z,99.9
2017-10-04T06:16:45.754Z,99.9
2017-10-04T06:17:53.219Z,99.9
2017-10-04T06:19:00.356Z,99.9
2017-10-04T06:20:07.826Z,99.9
2017-10-04T06:21:14.970Z,99.9
2017-10-04T06:22:23.912Z,99.9
2017-10-04T06:23:31.386Z,99.9
2017-10-04T06:24:38.863Z,99.9
2017-10-04T06:25:46.332Z,99.9
2017-10-04T06:26:53.467Z,99.9
2017-10-04T06:28:01.303Z,99.9
2017-10-04T06:29:08.769Z,99.9
2017-10-04T06:30:16.233Z,99.9
2017-10-04T06:31:23.708Z,99.9
2017-10-04T06:32:31.180Z,99.9
2017-10-04T06:33:38.663Z,99.9
2017-10-04T06:34:46.132Z,99.9
2017-10-04T06:35:53.599Z,99.9
2017-10-04T06:37:01.069Z,99.9
2017-10-04T06:38:08.537Z,99.9
2017-10-04T06:39:16.222Z,99.9
2017-10-04T06:40:23.925Z,99.9
2017-10-04T06:41:31.393Z,99.9
2017-10-04T06:42:38.886Z,99.9
2017-10-04T06:43:47.665Z,99.9
2017-10-04T06:44:55.133Z,99.9
2017-10-04T06:46:02.605Z,99.9
2017-10-04T06:47:10.071Z,99.9
2017-10-04T06:48:17.204Z,99.9
2017-10-04T06:49:25.029Z,99.9
2017-10-04T06:50:32.507Z,99.9
2017-10-04T06:51:39.657Z,99.9
2017-10-04T06:52:47.128Z,99.9
2017-10-04T06:53:54.593Z,99.9
2017-10-04T06:55:02.418Z,99.9
2017-10-04T06:56:09.893Z,99.9
2017-10-04T06:57:17.369Z,99.9
2017-10-04T06:58:24.836Z,99.9
2017-10-04T06:59:32.310Z,99.9
2017-10-04T07:00:39.810Z,99.9
2017-10-04T07:01:47.277Z,99.9
2017-10-04T07:02:54.418Z,99.9
2017-10-04T07:04:01.891Z,99.9
2017-10-04T07:05:09.365Z,99.9
2017-10-04T07:06:16.833Z,99.9
2017-10-04T07:07:24.298Z,99.9
2017-10-04T07:08:31.764Z,99.9
2017-10-04T07:09:38.901Z,99.9
2017-10-04T07:10:46.365Z,99.9
2017-10-04T07:11:53.167Z,99.9
2017-10-04T07:13:00.656Z,99.9
2017-10-04T07:14:08.125Z,99.9
2017-10-04T07:15:15.592Z,99.9
2017-10-04T07:16:23.068Z,99.9
2017-10-04T07:17:30.538Z,99.9
2017-10-04T07:18:38.018Z,99.9
2017-10-04T07:19:45.841Z,99.9
2017-10-04T07:20:53.308Z,99.9
2017-10-04T07:22:00.805Z,99.9
2017-10-04T07:23:08.294Z,99.9
2017-10-04T07:24:15.433Z,99.9
2017-10-04T07:25:23.842Z,99.9
2017-10-04T07:26:31.324Z,99.9
2017-10-04T07:27:38.813Z,99.9
2017-10-04T07:28:45.946Z,99.9
2017-10-04T07:29:53.412Z,99.9
2017-10-04T07:31:00.551Z,99.9
2017-10-04T07:32:07.694Z,99.9
2017-10-04T07:33:15.160Z,99.9
2017-10-04T07:34:22.637Z,99.9
2017-10-04T07:35:30.118Z,99.9
2017-10-04T07:36:37.938Z,99.9
2017-10-04T07:37:45.615Z,99.9
2017-10-04T07:38:53.082Z,99.9
2017-10-04T07:40:00.556Z,99.9
2017-10-04T07:41:08.045Z,99.9
2017-10-04T07:42:15.932Z,99.9
2017-10-04T07:43:23.073Z,99.9
2017-10-04T07:44:30.223Z,99.9
2017-10-04T07:45:37.361Z,99.9
2017-10-04T07:46:44.500Z,99.9
2017-10-04T07:47:51.988Z,99.9
2017-10-04T07:48:59.452Z,99.9
2017-10-04T07:50:06.583Z,99.9
2017-10-04T07:51:13.730Z,99.9
2017-10-04T07:52:21.203Z,99.9
2017-10-04T07:53:29.026Z,99.9
2017-10-04T07:54:36.498Z,99.9
2017-10-04T07:55:43.640Z,99.9
2017-10-04T07:56:51.110Z,99.9
2017-10-04T07:57:58.593Z,99.9
2017-10-04T07:59:06.067Z,99.9
2017-10-04T08:00:13.533Z,99.9
2017-10-04T08:01:21.004Z,99.9
2017-10-04T08:02:28.135Z,99.9
2017-10-04T08:03:35.972Z,99.9
2017-10-04T08:04:43.450Z,99.9
2017-10-04T08:05:50.603Z,99.9
2017-10-04T08:06:58.094Z,99.9
2017-10-04T08:08:05.255Z,99.9
2017-10-04T08:09:13.077Z,99.9
2017-10-04T08:10:20.558Z,99.9
2017-10-04T08:11:28.029Z,99.9
2017-10-04T08:12:35.373Z,99.9
2017-10-04T08:13:42.508Z,99.9
2017-10-04T08:14:50.335Z,99.9
2017-10-04T08:15:57.804Z,99.9
2017-10-04T08:17:05.319Z,99.9
2017-10-04T08:18:12.462Z,99.9
2017-10-04T08:19:19.600Z,99.9
2017-10-04T08:20:27.072Z,99.9
2017-10-04T08:21:34.544Z,99.9
2017-10-04T08:22:42.025Z,99.9
2017-10-04T08:23:49.151Z,99.9
2017-10-04T08:24:56.974Z,99.9
2017-10-04T08:26:04.450Z,99.9
2017-10-04T08:27:11.943Z,99.9
2017-10-04T08:28:19.412Z,99.9
2017-10-04T08:29:26.885Z,99.9
2017-10-04T08:30:34.366Z,99.9
2017-10-04T08:31:41.837Z,99.9
2017-10-04T08:32:49.308Z,99.9
2017-10-04T08:33:56.784Z,99.9
2017-10-04T08:35:04.262Z,99.9
2017-10-04T08:36:12.094Z,99.9
2017-10-04T08:37:19.572Z,99.9
2017-10-04T08:38:27.045Z,99.9
2017-10-04T08:39:34.540Z,99.9
2017-10-04T08:40:42.013Z,99.9
2017-10-04T08:41:49.833Z,99.9
2017-10-04T08:42:57.304Z,99.9
2017-10-04T08:44:04.868Z,99.9
2017-10-04T08:45:12.013Z,99.9
2017-10-04T08:46:19.497Z,99.9
2017-10-04T08:47:26.961Z,99.9
2017-10-04T08:48:34.103Z,99.9
2017-10-04T08:49:41.576Z,99.9
2017-10-04T08:50:49.055Z,99.9
2017-10-04T08:51:56.522Z,99.9
2017-10-04T08:53:04.344Z,99.9
2017-10-04T08:54:10.821Z,99.9
2017-10-04T08:55:18.315Z,99.9
2017-10-04T08:56:25.792Z,99.9
2017-10-04T08:57:33.275Z,99.9
2017-10-04T08:58:41.089Z,97.9
2017-10-04T08:59:48.564Z,98.1
2017-10-04T09:00:55.700Z,99
2017-10-04T09:02:03.172Z,98.5
2017-10-04T09:03:10.645Z,99.3
2017-10-04T09:04:18.466Z,99.9
2017-10-04T09:05:25.936Z,99
2017-10-04T09:06:33.407Z,99
2017-10-04T09:07:40.878Z,97.4
2017-10-04T09:08:48.017Z,97.8
2017-10-04T09:09:55.502Z,97.7
2017-10-04T09:11:02.984Z,97.8
2017-10-04T09:12:10.126Z,97.1
2017-10-04T09:13:17.265Z,97.2
2017-10-04T09:14:24.740Z,97.4
2017-10-04T09:15:32.566Z,97.7
2017-10-04T09:16:39.711Z,97.4
2017-10-04T09:17:47.184Z,96.6
2017-10-04T09:18:54.654Z,96.5
2017-10-04T09:20:02.135Z,96.6
2017-10-04T09:21:09.957Z,97.1
2017-10-04T09:22:17.431Z,96.6
2017-10-04T09:23:24.436Z,96.3
2017-10-04T09:24:31.912Z,96.7
2017-10-04T09:25:39.389Z,96.6
2017-10-04T09:26:47.212Z,96.3
2017-10-04T09:27:54.682Z,97
2017-10-04T09:29:02.157Z,94.9
2017-10-04T09:30:09.304Z,95.8
2017-10-04T09:31:16.774Z,96.6
2017-10-04T09:32:24.243Z,96.6
2017-10-04T09:33:31.717Z,95
2017-10-04T09:34:39.231Z,95.9
2017-10-04T09:35:46.708Z,95.8
2017-10-04T09:36:54.528Z,95
2017-10-04T09:38:02.019Z,94.3
2017-10-04T09:39:09.494Z,95.2
2017-10-04T09:40:16.966Z,95.6
2017-10-04T09:41:24.439Z,94.7
2017-10-04T09:42:32.265Z,94.7
2017-10-04T09:43:39.736Z,94.4
2017-10-04T09:44:47.206Z,94.6
2017-10-04T09:45:54.346Z,94.6
2017-10-04T09:47:01.833Z,95.6
2017-10-04T09:48:09.657Z,93.7
2017-10-04T09:49:17.131Z,94.1
2017-10-04T09:50:24.606Z,93.9
2017-10-04T09:51:32.087Z,95
2017-10-04T09:52:39.566Z,93.4
2017-10-04T09:53:47.068Z,93.7
2017-10-04T09:54:54.534Z,94.1
2017-10-04T09:56:01.680Z,93.3
2017-10-04T09:57:08.838Z,92.5
2017-10-04T09:58:16.303Z,92.6
2017-10-04T09:59:24.132Z,93.1
2017-10-04T10:00:31.603Z,92.2
2017-10-04T10:01:39.076Z,92.9
2017-10-04T10:02:46.572Z,91.8
2017-10-04T10:03:54.045Z,93.4
2017-10-04T10:05:01.489Z,92.3
2017-10-04T10:06:08.638Z,91.6
2017-10-04T10:07:16.121Z,91.2
2017-10-04T10:08:23.600Z,91
2017-10-04T10:09:31.076Z,90.6
2017-10-04T10:10:38.900Z,91
2017-10-04T10:11:52.460Z,91.4
2017-10-04T10:12:59.949Z,91.8
2017-10-04T10:14:07.422Z,92.4
2017-10-04T10:15:14.572Z,91.5
2017-10-04T10:16:22.396Z,92.5
2017-10-04T10:17:32.423Z,92.7
2017-10-04T10:19:12.536Z,92.6
2017-10-04T10:20:20.022Z,92.4
2017-10-04T10:21:27.855Z,92.6
2017-10-04T10:22:35.004Z,91.5
2017-10-04T10:23:42.486Z,91.7
2017-10-04T10:24:49.960Z,92.6
2017-10-04T10:25:57.434Z,92.1
2017-10-04T10:27:05.277Z,92.5
2017-10-04T10:28:12.750Z,92.5
2017-10-04T10:29:20.221Z,92.8
2017-10-04T10:30:27.711Z,92.7
2017-10-04T10:31:34.853Z,92.2
2017-10-04T10:32:42.678Z,92.4
2017-10-04T10:33:50.148Z,91.9
2017-10-04T10:34:57.284Z,92.2
2017-10-04T10:36:04.764Z,91.6
2017-10-04T10:37:11.570Z,92.2
2017-10-04T10:38:19.393Z,91.8
2017-10-04T10:39:26.872Z,93
2017-10-04T10:40:34.365Z,90.2
2017-10-04T10:41:41.841Z,90.2
2017-10-04T10:42:49.319Z,89.2
2017-10-04T10:43:57.140Z,90.3
2017-10-04T10:45:04.613Z,88.4
2017-10-04T10:46:12.094Z,88.3
2017-10-04T10:47:19.260Z,89.5
2017-10-04T10:48:26.739Z,90.9
2017-10-04T10:49:34.230Z,90.2
2017-10-04T10:50:41.703Z,89.3
2017-10-04T10:51:48.852Z,89.3
2017-10-04T10:52:56.328Z,90
2017-10-04T10:54:03.798Z,90.5
2017-10-04T10:55:10.946Z,87.8
2017-10-04T10:56:18.426Z,89.5
2017-10-04T10:57:26.165Z,90
2017-10-04T10:58:33.640Z,89.4
2017-10-04T10:59:41.115Z,90.3
2017-10-04T11:00:48.603Z,90.1
2017-10-04T11:01:56.077Z,90
2017-10-04T11:03:03.550Z,90
2017-10-04T11:04:11.031Z,89.2
2017-10-04T11:05:18.508Z,89.7
2017-10-04T11:06:25.986Z,90
2017-10-04T11:07:33.463Z,88.9
2017-10-04T11:08:40.614Z,89.8
2017-10-04T11:09:48.084Z,86
2017-10-04T11:10:55.223Z,88.6
2017-10-04T11:12:02.696Z,90
2017-10-04T11:13:10.168Z,86.7
2017-10-04T11:14:17.639Z,89
2017-10-04T11:15:25.110Z,90.2
2017-10-04T11:16:32.587Z,89.3
2017-10-04T11:17:40.061Z,85.7
2017-10-04T11:18:47.636Z,90.1
2017-10-04T11:19:55.109Z,90.3
2017-10-04T11:21:02.254Z,90.1
2017-10-04T11:22:09.407Z,87.8
2017-10-04T11:23:16.882Z,85.4
2017-10-04T11:24:24.032Z,84.9
2017-10-04T11:25:31.522Z,84.8
2017-10-04T11:26:38.665Z,80.8
2017-10-04T11:27:46.142Z,80.3
2017-10-04T11:28:53.619Z,81.5
2017-10-04T11:30:01.091Z,83.6
2017-10-04T11:31:08.234Z,83.2
2017-10-04T11:32:15.710Z,81.9
2017-10-04T11:33:23.196Z,83.7
2017-10-04T11:34:30.343Z,84.6
2017-10-04T11:35:37.840Z,82.2
2017-10-04T11:36:45.000Z,81.6
2017-10-04T11:38:59.255Z,83.5
2017-10-04T11:40:06.388Z,84.7
2017-10-04T11:41:13.865Z,84.5
2017-10-04T11:42:21.346Z,82.3
2017-10-04T11:43:28.837Z,83.2
2017-10-04T11:44:36.333Z,83.2
2017-10-04T11:45:43.811Z,79.6
2017-10-04T11:46:51.288Z,84
2017-10-04T11:47:58.428Z,84.4
2017-10-04T11:49:06.176Z,83.5
2017-10-04T11:50:13.649Z,83.3
2017-10-04T11:51:21.131Z,79.7
2017-10-04T11:52:28.603Z,81.6
2017-10-04T11:53:36.097Z,83.1
2017-10-04T11:54:43.571Z,80.1
2017-10-04T11:55:51.051Z,81
2017-10-04T11:56:58.526Z,82.8
2017-10-04T11:58:05.673Z,82.9
2017-10-04T11:59:13.148Z,83.3
2017-10-04T12:00:20.627Z,83
2017-10-04T12:01:28.131Z,83.3
2017-10-04T12:02:35.614Z,80.1
2017-10-04T12:03:42.767Z,80
2017-10-04T12:04:49.915Z,82.4
2017-10-04T12:05:57.393Z,80.3
2017-10-04T12:07:04.878Z,78.6
2017-10-04T12:08:11.687Z,79.9
2017-10-04T12:09:19.157Z,78.6
2017-10-04T12:10:26.636Z,80.7
2017-10-04T12:11:34.109Z,81.8
2017-10-04T12:12:41.582Z,81.9
2017-10-04T12:13:48.824Z,79.9
2017-10-04T12:14:56.587Z,80.9
2017-10-04T12:16:04.072Z,81.6
2017-10-04T12:17:11.550Z,80.6
2017-10-04T12:18:19.030Z,81.6
2017-10-04T12:19:26.605Z,77.9
2017-10-04T12:20:34.309Z,77.7
2017-10-04T12:21:41.778Z,78.8
2017-10-04T12:22:49.262Z,79.6
2017-10-04T12:23:56.742Z,81.8
2017-10-04T12:25:04.215Z,81.5
